sensor_id;sensor_type;location;lat;lon;timestamp;temperature;humidity
51007;DHT22;37034;47.886;-3.904;2024-03-23T00:54:21;11.20;99.90
51007;DHT22;37034;47.886;-3.904;2024-03-23T00:56:47;11.20;99.90
51007;DHT22;37034;47.886;-3.904;2024-03-23T00:59:12;11.20;99.90
51007;DHT22;37034;47.886;-3.904;2024-03-23T01:01:39;11.20;99.90
51007;DHT22;37034;47.886;-3.904;2024-03-23T01:04:04;11.20;99.90
51007;DHT22;37034;47.886;-3.904;2024-03-23T01:06:30;11.20;99.90
51007;DHT22;37034;47.886;-3.904;2024-03-23T01:08:56;11.20;99.90
51007;DHT22;37034;47.886;-3.904;2024-03-23T01:11:21;11.10;99.90
51007;DHT22;37034;47.886;-3.904;2024-03-23T01:13:47;11.10;99.90
51007;DHT22;37034;47.886;-3.904;2024-03-23T01:16:13;11.20;99.90
51007;DHT22;37034;47.886;-3.904;2024-03-23T01:18:38;11.20;99.90
51007;DHT22;37034;47.886;-3.904;2024-03-23T01:21:04;11.20;99.90
51007;DHT22;37034;47.886;-3.904;2024-03-23T01:23:30;11.10;99.90
51007;DHT22;37034;47.886;-3.904;2024-03-23T01:25:55;11.20;99.90
51007;DHT22;37034;47.886;-3.904;2024-03-23T01:28:21;11.20;99.90
51007;DHT22;37034;47.886;-3.904;2024-03-23T01:30:48;11.20;99.90
51007;DHT22;37034;47.886;-3.904;2024-03-23T01:33:14;11.20;99.90
51007;DHT22;37034;47.886;-3.904;2024-03-23T01:35:39;11.20;99.90
51007;DHT22;37034;47.886;-3.904;2024-03-23T01:38:05;11.30;99.90
51007;DHT22;37034;47.886;-3.904;2024-03-23T01:40:31;11.30;99.90
51007;DHT22;37034;47.886;-3.904;2024-03-23T01:43:07;11.30;99.90
51007;DHT22;37034;47.886;-3.904;2024-03-23T01:45:33;11.30;99.90
51007;DHT22;37034;47.886;-3.904;2024-03-23T01:48:00;11.30;99.90
51007;DHT22;37034;47.886;-3.904;2024-03-23T01:50:26;11.30;99.90
51007;DHT22;37034;47.886;-3.904;2024-03-23T01:52:52;11.30;99.90
51007;DHT22;37034;47.886;-3.904;2024-03-23T01:55:19;11.30;99.90
51007;DHT22;37034;47.886;-3.904;2024-03-23T01:57:44;11.20;99.90
51007;DHT22;37034;47.886;-3.904;2024-03-23T02:00:11;11.20;99.90
51007;DHT22;37034;47.886;-3.904;2024-03-23T02:02:46;11.10;99.90
51007;DHT22;37034;47.886;-3.904;2024-03-23T02:05:12;11.10;99.90
51007;DHT22;37034;47.886;-3.904;2024-03-23T02:07:42;11.10;99.90
51007;DHT22;37034;47.886;-3.904;2024-03-23T02:10:09;11.10;99.90
51007;DHT22;37034;47.886;-3.904;2024-03-23T02:12:36;11.10;99.90
51007;DHT22;37034;47.886;-3.904;2024-03-23T02:15:02;11.10;99.90
51007;DHT22;37034;47.886;-3.904;2024-03-23T02:17:30;11.10;99.90
51007;DHT22;37034;47.886;-3.904;2024-03-23T02:19:56;11.10;99.90
51007;DHT22;37034;47.886;-3.904;2024-03-23T02:22:22;11.10;99.90
51007;DHT22;37034;47.886;-3.904;2024-03-23T02:24:47;10.90;99.90
51007;DHT22;37034;47.886;-3.904;2024-03-23T02:27:13;10.70;99.90
51007;DHT22;37034;47.886;-3.904;2024-03-23T02:29:39;10.80;99.90
51007;DHT22;37034;47.886;-3.904;2024-03-23T02:32:05;10.90;99.90
51007;DHT22;37034;47.886;-3.904;2024-03-23T02:34:31;11.00;99.90
51007;DHT22;37034;47.886;-3.904;2024-03-23T02:36:57;11.00;99.90
51007;DHT22;37034;47.886;-3.904;2024-03-23T02:39:22;11.10;99.90
51007;DHT22;37034;47.886;-3.904;2024-03-23T02:41:48;11.00;99.90
51007;DHT22;37034;47.886;-3.904;2024-03-23T02:44:14;11.00;99.90
51007;DHT22;37034;47.886;-3.904;2024-03-23T02:46:40;10.90;99.90
51007;DHT22;37034;47.886;-3.904;2024-03-23T02:49:07;11.00;99.90
51007;DHT22;37034;47.886;-3.904;2024-03-23T02:51:33;11.00;99.90
51007;DHT22;37034;47.886;-3.904;2024-03-23T02:53:58;10.90;99.90
51007;DHT22;37034;47.886;-3.904;2024-03-23T02:56:24;11.00;99.90
51007;DHT22;37034;47.886;-3.904;2024-03-23T02:58:50;11.10;99.90
51007;DHT22;37034;47.886;-3.904;2024-03-23T03:01:15;11.10;99.90
51007;DHT22;37034;47.886;-3.904;2024-03-23T03:03:41;11.00;99.90
51007;DHT22;37034;47.886;-3.904;2024-03-23T03:06:06;11.00;99.90
51007;DHT22;37034;47.886;-3.904;2024-03-23T03:08:32;10.90;99.90
51007;DHT22;37034;47.886;-3.904;2024-03-23T03:10:58;10.90;99.90
51007;DHT22;37034;47.886;-3.904;2024-03-23T03:13:23;11.00;99.90
51007;DHT22;37034;47.886;-3.904;2024-03-23T03:15:49;10.90;99.90
51007;DHT22;37034;47.886;-3.904;2024-03-23T03:18:15;10.90;99.90
51007;DHT22;37034;47.886;-3.904;2024-03-23T03:20:40;11.00;99.90
51007;DHT22;37034;47.886;-3.904;2024-03-23T03:23:07;11.00;99.90
51007;DHT22;37034;47.886;-3.904;2024-03-23T03:25:33;11.00;99.90
51007;DHT22;37034;47.886;-3.904;2024-03-23T03:27:58;11.00;99.90
51007;DHT22;37034;47.886;-3.904;2024-03-23T03:30:24;11.00;99.90
51007;DHT22;37034;47.886;-3.904;2024-03-23T03:32:54;11.00;99.90
51007;DHT22;37034;47.886;-3.904;2024-03-23T03:35:20;11.00;99.90
51007;DHT22;37034;47.886;-3.904;2024-03-23T03:37:46;10.90;99.90
51007;DHT22;37034;47.886;-3.904;2024-03-23T03:40:12;10.90;99.90
51007;DHT22;37034;47.886;-3.904;2024-03-23T03:42:38;11.00;99.90
51007;DHT22;37034;47.886;-3.904;2024-03-23T03:45:04;11.00;99.90
51007;DHT22;37034;47.886;-3.904;2024-03-23T03:47:30;11.00;99.90
51007;DHT22;37034;47.886;-3.904;2024-03-23T03:49:56;11.00;99.90
51007;DHT22;37034;47.886;-3.904;2024-03-23T03:52:22;11.00;99.90
51007;DHT22;37034;47.886;-3.904;2024-03-23T03:54:47;11.00;99.90
51007;DHT22;37034;47.886;-3.904;2024-03-23T03:57:13;11.00;99.90
51007;DHT22;37034;47.886;-3.904;2024-03-23T03:59:39;10.90;99.90
51007;DHT22;37034;47.886;-3.904;2024-03-23T04:02:04;10.90;99.90
51007;DHT22;37034;47.886;-3.904;2024-03-23T04:04:30;10.90;99.90
51007;DHT22;37034;47.886;-3.904;2024-03-23T04:07:02;10.90;99.90
51007;DHT22;37034;47.886;-3.904;2024-03-23T04:09:28;10.80;99.90
51007;DHT22;37034;47.886;-3.904;2024-03-23T04:11:54;10.80;99.90
51007;DHT22;37034;47.886;-3.904;2024-03-23T04:14:20;10.80;99.90
51007;DHT22;37034;47.886;-3.904;2024-03-23T04:16:45;10.70;99.90
51007;DHT22;37034;47.886;-3.904;2024-03-23T04:19:11;10.70;99.90
51007;DHT22;37034;47.886;-3.904;2024-03-23T04:21:40;10.60;99.90
51007;DHT22;37034;47.886;-3.904;2024-03-23T04:24:06;10.60;99.90
51007;DHT22;37034;47.886;-3.904;2024-03-23T04:26:41;10.60;99.90
51007;DHT22;37034;47.886;-3.904;2024-03-23T04:29:07;10.50;99.90
51007;DHT22;37034;47.886;-3.904;2024-03-23T04:31:32;10.50;99.90
51007;DHT22;37034;47.886;-3.904;2024-03-23T04:34:03;10.50;99.90
51007;DHT22;37034;47.886;-3.904;2024-03-23T04:36:29;10.40;99.90
51007;DHT22;37034;47.886;-3.904;2024-03-23T04:38:55;10.40;99.90
51007;DHT22;37034;47.886;-3.904;2024-03-23T04:41:20;10.40;99.90
51007;DHT22;37034;47.886;-3.904;2024-03-23T04:43:46;10.40;99.90
51007;DHT22;37034;47.886;-3.904;2024-03-23T04:46:12;10.40;99.90
51007;DHT22;37034;47.886;-3.904;2024-03-23T04:48:37;10.40;99.90
51007;DHT22;37034;47.886;-3.904;2024-03-23T04:51:04;10.30;99.90
51007;DHT22;37034;47.886;-3.904;2024-03-23T04:53:29;10.40;99.90
51007;DHT22;37034;47.886;-3.904;2024-03-23T04:55:58;10.40;99.90
51007;DHT22;37034;47.886;-3.904;2024-03-23T04:58:27;10.50;99.90
51007;DHT22;37034;47.886;-3.904;2024-03-23T05:00:57;10.50;99.90
51007;DHT22;37034;47.886;-3.904;2024-03-23T05:03:22;10.40;99.90
51007;DHT22;37034;47.886;-3.904;2024-03-23T05:05:49;10.40;99.90
51007;DHT22;37034;47.886;-3.904;2024-03-23T05:08:17;10.40;99.90
51007;DHT22;37034;47.886;-3.904;2024-03-23T05:10:43;10.40;99.90
51007;DHT22;37034;47.886;-3.904;2024-03-23T05:13:09;10.40;99.90
51007;DHT22;37034;47.886;-3.904;2024-03-23T05:15:35;10.40;99.90
51007;DHT22;37034;47.886;-3.904;2024-03-23T05:18:01;10.40;99.90
51007;DHT22;37034;47.886;-3.904;2024-03-23T05:20:27;10.40;99.90
51007;DHT22;37034;47.886;-3.904;2024-03-23T05:22:54;10.40;99.90
51007;DHT22;37034;47.886;-3.904;2024-03-23T05:25:20;10.40;99.90
51007;DHT22;37034;47.886;-3.904;2024-03-23T05:27:45;10.30;99.90
51007;DHT22;37034;47.886;-3.904;2024-03-23T05:30:11;10.30;99.90
51007;DHT22;37034;47.886;-3.904;2024-03-23T05:32:37;10.30;99.90
51007;DHT22;37034;47.886;-3.904;2024-03-23T05:35:06;10.30;99.90
51007;DHT22;37034;47.886;-3.904;2024-03-23T05:37:33;10.30;99.90
51007;DHT22;37034;47.886;-3.904;2024-03-23T05:39:59;10.20;99.90
51007;DHT22;37034;47.886;-3.904;2024-03-23T05:42:25;10.20;99.90
51007;DHT22;37034;47.886;-3.904;2024-03-23T05:44:51;10.20;99.90
51007;DHT22;37034;47.886;-3.904;2024-03-23T05:47:17;10.20;99.90
51007;DHT22;37034;47.886;-3.904;2024-03-23T05:49:43;10.20;99.90
51007;DHT22;37034;47.886;-3.904;2024-03-23T05:52:09;10.10;99.90
51007;DHT22;37034;47.886;-3.904;2024-03-23T05:54:35;10.20;99.90
51007;DHT22;37034;47.886;-3.904;2024-03-23T05:57:01;10.20;99.90
51007;DHT22;37034;47.886;-3.904;2024-03-23T05:59:27;10.20;99.90
51007;DHT22;37034;47.886;-3.904;2024-03-23T06:01:53;10.20;99.90
51007;DHT22;37034;47.886;-3.904;2024-03-23T06:04:19;10.20;99.90
51007;DHT22;37034;47.886;-3.904;2024-03-23T06:06:45;10.20;99.90
51007;DHT22;37034;47.886;-3.904;2024-03-23T06:09:11;10.20;99.90
51007;DHT22;37034;47.886;-3.904;2024-03-23T06:11:36;10.20;99.90
51007;DHT22;37034;47.886;-3.904;2024-03-23T06:14:02;10.20;99.90
51007;DHT22;37034;47.886;-3.904;2024-03-23T06:16:28;10.20;99.90
51007;DHT22;37034;47.886;-3.904;2024-03-23T06:18:54;10.10;99.90
51007;DHT22;37034;47.886;-3.904;2024-03-23T06:21:20;10.10;99.90
51007;DHT22;37034;47.886;-3.904;2024-03-23T06:23:46;10.10;99.90
51007;DHT22;37034;47.886;-3.904;2024-03-23T06:26:20;10.10;99.90
51007;DHT22;37034;47.886;-3.904;2024-03-23T06:28:49;10.10;99.90
51007;DHT22;37034;47.886;-3.904;2024-03-23T06:31:15;10.10;99.90
51007;DHT22;37034;47.886;-3.904;2024-03-23T06:33:40;10.10;99.90
51007;DHT22;37034;47.886;-3.904;2024-03-23T06:36:10;10.10;99.90
51007;DHT22;37034;47.886;-3.904;2024-03-23T06:38:37;10.00;99.90
51007;DHT22;37034;47.886;-3.904;2024-03-23T06:41:04;10.00;99.90
51007;DHT22;37034;47.886;-3.904;2024-03-23T06:43:29;10.10;99.90
51007;DHT22;37034;47.886;-3.904;2024-03-23T06:45:56;10.10;99.90
51007;DHT22;37034;47.886;-3.904;2024-03-23T06:48:22;10.10;99.90
51007;DHT22;37034;47.886;-3.904;2024-03-23T06:50:48;10.10;99.90
51007;DHT22;37034;47.886;-3.904;2024-03-23T06:53:14;10.10;99.90
51007;DHT22;37034;47.886;-3.904;2024-03-23T06:55:40;10.10;99.90
51007;DHT22;37034;47.886;-3.904;2024-03-23T06:58:06;10.20;99.90
51007;DHT22;37034;47.886;-3.904;2024-03-23T07:00:32;10.20;99.90
51007;DHT22;37034;47.886;-3.904;2024-03-23T07:02:59;10.30;99.90
51007;DHT22;37034;47.886;-3.904;2024-03-23T07:05:25;10.40;99.90
51007;DHT22;37034;47.886;-3.904;2024-03-23T07:07:50;10.40;99.90
51007;DHT22;37034;47.886;-3.904;2024-03-23T07:10:16;10.50;99.90
51007;DHT22;37034;47.886;-3.904;2024-03-23T07:12:43;10.50;99.90
51007;DHT22;37034;47.886;-3.904;2024-03-23T07:15:09;10.60;99.90
51007;DHT22;37034;47.886;-3.904;2024-03-23T07:17:34;10.70;99.90
51007;DHT22;37034;47.886;-3.904;2024-03-23T07:20:01;10.80;99.90
51007;DHT22;37034;47.886;-3.904;2024-03-23T07:22:32;10.90;99.90
51007;DHT22;37034;47.886;-3.904;2024-03-23T07:25:01;11.00;99.90
51007;DHT22;37034;47.886;-3.904;2024-03-23T07:27:26;11.10;99.90
51007;DHT22;37034;47.886;-3.904;2024-03-23T07:29:52;11.20;99.90
51007;DHT22;37034;47.886;-3.904;2024-03-23T07:32:18;11.30;99.90
51007;DHT22;37034;47.886;-3.904;2024-03-23T07:34:44;11.30;99.90
51007;DHT22;37034;47.886;-3.904;2024-03-23T07:37:13;11.50;99.90
51007;DHT22;37034;47.886;-3.904;2024-03-23T07:39:39;11.50;99.90
51007;DHT22;37034;47.886;-3.904;2024-03-23T07:42:05;11.60;99.90
51007;DHT22;37034;47.886;-3.904;2024-03-23T07:44:31;11.60;99.90
51007;DHT22;37034;47.886;-3.904;2024-03-23T07:46:58;11.70;99.90
51007;DHT22;37034;47.886;-3.904;2024-03-23T07:49:23;11.80;99.90
51007;DHT22;37034;47.886;-3.904;2024-03-23T07:51:49;11.90;99.90
51007;DHT22;37034;47.886;-3.904;2024-03-23T07:54:15;12.00;99.90
51007;DHT22;37034;47.886;-3.904;2024-03-23T07:56:41;12.20;99.90
51007;DHT22;37034;47.886;-3.904;2024-03-23T07:59:06;12.30;99.90
51007;DHT22;37034;47.886;-3.904;2024-03-23T08:01:32;12.30;99.90
51007;DHT22;37034;47.886;-3.904;2024-03-23T08:03:58;12.30;99.90
51007;DHT22;37034;47.886;-3.904;2024-03-23T08:06:23;12.30;99.90
51007;DHT22;37034;47.886;-3.904;2024-03-23T08:08:52;12.30;99.90
51007;DHT22;37034;47.886;-3.904;2024-03-23T08:11:25;12.30;99.90
51007;DHT22;37034;47.886;-3.904;2024-03-23T08:13:51;12.30;99.90
51007;DHT22;37034;47.886;-3.904;2024-03-23T08:16:17;12.40;99.90
51007;DHT22;37034;47.886;-3.904;2024-03-23T08:18:43;12.50;99.90
51007;DHT22;37034;47.886;-3.904;2024-03-23T08:21:08;12.40;99.90
51007;DHT22;37034;47.886;-3.904;2024-03-23T08:23:35;12.30;99.90
51007;DHT22;37034;47.886;-3.904;2024-03-23T08:26:09;12.40;99.90
51007;DHT22;37034;47.886;-3.904;2024-03-23T08:28:35;12.40;99.90
51007;DHT22;37034;47.886;-3.904;2024-03-23T08:31:02;12.40;99.90
51007;DHT22;37034;47.886;-3.904;2024-03-23T08:33:28;12.60;99.90
51007;DHT22;37034;47.886;-3.904;2024-03-23T08:35:55;12.70;99.90
51007;DHT22;37034;47.886;-3.904;2024-03-23T08:38:22;12.90;99.90
51007;DHT22;37034;47.886;-3.904;2024-03-23T08:40:47;13.10;99.90
51007;DHT22;37034;47.886;-3.904;2024-03-23T08:43:13;13.30;99.90
51007;DHT22;37034;47.886;-3.904;2024-03-23T08:45:39;13.20;99.90
51007;DHT22;37034;47.886;-3.904;2024-03-23T08:48:05;13.00;99.90
51007;DHT22;37034;47.886;-3.904;2024-03-23T08:50:30;13.00;99.90
51007;DHT22;37034;47.886;-3.904;2024-03-23T08:52:56;13.00;99.90
51007;DHT22;37034;47.886;-3.904;2024-03-23T08:55:22;13.10;99.90
51007;DHT22;37034;47.886;-3.904;2024-03-23T08:57:47;13.10;99.90
51007;DHT22;37034;47.886;-3.904;2024-03-23T09:00:13;13.20;99.90
51007;DHT22;37034;47.886;-3.904;2024-03-23T09:02:39;13.40;99.90
51007;DHT22;37034;47.886;-3.904;2024-03-23T09:05:05;13.10;99.90
51007;DHT22;37034;47.886;-3.904;2024-03-23T09:07:31;13.00;99.90
51007;DHT22;37034;47.886;-3.904;2024-03-23T09:09:59;12.90;99.90
51007;DHT22;37034;47.886;-3.904;2024-03-23T09:12:25;13.10;99.90
51007;DHT22;37034;47.886;-3.904;2024-03-23T09:14:51;13.10;99.90
51007;DHT22;37034;47.886;-3.904;2024-03-23T09:17:18;13.20;99.90
51007;DHT22;37034;47.886;-3.904;2024-03-23T09:19:44;13.30;99.90
51007;DHT22;37034;47.886;-3.904;2024-03-23T09:22:10;13.50;99.90
51007;DHT22;37034;47.886;-3.904;2024-03-23T09:24:35;13.60;99.90
51007;DHT22;37034;47.886;-3.904;2024-03-23T09:27:02;13.50;99.90
51007;DHT22;37034;47.886;-3.904;2024-03-23T09:29:28;13.50;99.90
51007;DHT22;37034;47.886;-3.904;2024-03-23T09:31:57;13.50;99.90
51007;DHT22;37034;47.886;-3.904;2024-03-23T09:34:23;13.70;99.90
51007;DHT22;37034;47.886;-3.904;2024-03-23T09:36:51;13.70;99.90
51007;DHT22;37034;47.886;-3.904;2024-03-23T09:39:18;13.70;99.90
51007;DHT22;37034;47.886;-3.904;2024-03-23T09:41:45;13.80;99.90
51007;DHT22;37034;47.886;-3.904;2024-03-23T09:44:11;13.90;99.90
51007;DHT22;37034;47.886;-3.904;2024-03-23T09:46:44;14.00;99.90
51007;DHT22;37034;47.886;-3.904;2024-03-23T09:49:10;14.10;99.90
51007;DHT22;37034;47.886;-3.904;2024-03-23T09:51:37;14.00;99.90
51007;DHT22;37034;47.886;-3.904;2024-03-23T09:54:02;14.10;99.90
51007;DHT22;37034;47.886;-3.904;2024-03-23T09:56:28;14.10;99.90
51007;DHT22;37034;47.886;-3.904;2024-03-23T09:59:01;14.00;99.90
51007;DHT22;37034;47.886;-3.904;2024-03-23T10:01:30;13.90;99.90
51007;DHT22;37034;47.886;-3.904;2024-03-23T10:03:55;13.90;99.90
51007;DHT22;37034;47.886;-3.904;2024-03-23T10:06:22;14.00;99.90
51007;DHT22;37034;47.886;-3.904;2024-03-23T10:08:50;14.00;99.90
51007;DHT22;37034;47.886;-3.904;2024-03-23T10:11:16;14.10;99.90
51007;DHT22;37034;47.886;-3.904;2024-03-23T10:13:43;14.30;99.90
51007;DHT22;37034;47.886;-3.904;2024-03-23T10:16:09;14.30;99.90
51007;DHT22;37034;47.886;-3.904;2024-03-23T10:18:39;14.30;99.90
51007;DHT22;37034;47.886;-3.904;2024-03-23T10:21:11;14.30;99.90
51007;DHT22;37034;47.886;-3.904;2024-03-23T10:23:41;14.30;99.90
51007;DHT22;37034;47.886;-3.904;2024-03-23T10:28:51;14.20;99.90
51007;DHT22;37034;47.886;-3.904;2024-03-23T10:31:17;14.10;99.90
51007;DHT22;37034;47.886;-3.904;2024-03-23T10:33:47;14.10;99.50
51007;DHT22;37034;47.886;-3.904;2024-03-23T10:36:13;14.10;99.90
51007;DHT22;37034;47.886;-3.904;2024-03-23T10:38:41;14.00;99.90
51007;DHT22;37034;47.886;-3.904;2024-03-23T10:41:09;13.90;99.90
51007;DHT22;37034;47.886;-3.904;2024-03-23T10:43:37;13.90;99.70
51007;DHT22;37034;47.886;-3.904;2024-03-23T10:46:03;14.00;99.70
51007;DHT22;37034;47.886;-3.904;2024-03-23T10:48:29;14.10;98.60
51007;DHT22;37034;47.886;-3.904;2024-03-23T10:50:55;14.10;99.20
51007;DHT22;37034;47.886;-3.904;2024-03-23T10:53:25;14.00;99.90
51007;DHT22;37034;47.886;-3.904;2024-03-23T10:55:51;14.00;99.90
51007;DHT22;37034;47.886;-3.904;2024-03-23T10:58:28;14.00;99.90
51007;DHT22;37034;47.886;-3.904;2024-03-23T11:00:55;14.00;99.90
51007;DHT22;37034;47.886;-3.904;2024-03-23T11:03:38;14.00;99.90
51007;DHT22;37034;47.886;-3.904;2024-03-23T11:06:05;14.20;99.90
51007;DHT22;37034;47.886;-3.904;2024-03-23T11:08:38;14.30;99.90
51007;DHT22;37034;47.886;-3.904;2024-03-23T11:11:20;14.30;99.90
51007;DHT22;37034;47.886;-3.904;2024-03-23T11:13:51;14.10;99.90
51007;DHT22;37034;47.886;-3.904;2024-03-23T11:16:22;14.30;99.90
51007;DHT22;37034;47.886;-3.904;2024-03-23T11:18:49;14.50;99.90
51007;DHT22;37034;47.886;-3.904;2024-03-23T11:21:52;14.70;99.90
51007;DHT22;37034;47.886;-3.904;2024-03-23T11:24:19;15.00;99.90
51007;DHT22;37034;47.886;-3.904;2024-03-23T11:26:46;14.90;99.90
51007;DHT22;37034;47.886;-3.904;2024-03-23T11:29:13;14.70;99.90
51007;DHT22;37034;47.886;-3.904;2024-03-23T11:31:46;14.60;99.90
51007;DHT22;37034;47.886;-3.904;2024-03-23T11:34:12;14.40;99.90
51007;DHT22;37034;47.886;-3.904;2024-03-23T11:36:38;14.40;99.90
51007;DHT22;37034;47.886;-3.904;2024-03-23T11:39:17;14.40;99.90
51007;DHT22;37034;47.886;-3.904;2024-03-23T11:41:51;14.50;99.90
51007;DHT22;37034;47.886;-3.904;2024-03-23T11:44:20;14.30;99.90
51007;DHT22;37034;47.886;-3.904;2024-03-23T11:46:46;14.20;99.90
51007;DHT22;37034;47.886;-3.904;2024-03-23T11:49:26;14.40;99.90
51007;DHT22;37034;47.886;-3.904;2024-03-23T11:51:53;14.50;99.90
51007;DHT22;37034;47.886;-3.904;2024-03-23T11:54:23;14.50;99.90
51007;DHT22;37034;47.886;-3.904;2024-03-23T11:56:59;14.40;99.90
51007;DHT22;37034;47.886;-3.904;2024-03-23T11:59:35;14.70;99.90
51007;DHT22;37034;47.886;-3.904;2024-03-23T12:02:09;14.80;99.90
51007;DHT22;37034;47.886;-3.904;2024-03-23T12:04:36;15.00;99.90
51007;DHT22;37034;47.886;-3.904;2024-03-23T12:07:19;15.10;99.90
51007;DHT22;37034;47.886;-3.904;2024-03-23T12:09:45;14.80;99.90
51007;DHT22;37034;47.886;-3.904;2024-03-23T12:12:18;14.80;99.90
51007;DHT22;37034;47.886;-3.904;2024-03-23T12:14:45;14.80;99.90
51007;DHT22;37034;47.886;-3.904;2024-03-23T12:17:15;14.80;99.90
51007;DHT22;37034;47.886;-3.904;2024-03-23T12:19:41;14.60;99.90
51007;DHT22;37034;47.886;-3.904;2024-03-23T12:22:08;14.60;99.90
51007;DHT22;37034;47.886;-3.904;2024-03-23T12:24:34;14.80;99.90
51007;DHT22;37034;47.886;-3.904;2024-03-23T12:27:04;14.60;99.90
51007;DHT22;37034;47.886;-3.904;2024-03-23T12:29:33;14.50;99.90
51007;DHT22;37034;47.886;-3.904;2024-03-23T12:32:00;14.60;99.90
51007;DHT22;37034;47.886;-3.904;2024-03-23T12:34:27;14.30;99.90
51007;DHT22;37034;47.886;-3.904;2024-03-23T12:36:52;14.30;99.90
51007;DHT22;37034;47.886;-3.904;2024-03-23T12:39:18;14.50;99.90
51007;DHT22;37034;47.886;-3.904;2024-03-23T12:41:46;14.40;99.90
51007;DHT22;37034;47.886;-3.904;2024-03-23T12:44:11;14.40;99.90
51007;DHT22;37034;47.886;-3.904;2024-03-23T12:46:40;14.40;99.90
51007;DHT22;37034;47.886;-3.904;2024-03-23T12:49:06;14.10;99.90
51007;DHT22;37034;47.886;-3.904;2024-03-23T12:51:32;14.10;99.90
51007;DHT22;37034;47.886;-3.904;2024-03-23T12:53:58;14.10;99.90
51007;DHT22;37034;47.886;-3.904;2024-03-23T12:56:24;14.10;99.90
51007;DHT22;37034;47.886;-3.904;2024-03-23T12:58:49;14.30;99.90
51007;DHT22;37034;47.886;-3.904;2024-03-23T13:01:19;14.40;99.90
51007;DHT22;37034;47.886;-3.904;2024-03-23T13:03:48;14.50;99.90
51007;DHT22;37034;47.886;-3.904;2024-03-23T13:06:14;14.60;99.90
51007;DHT22;37034;47.886;-3.904;2024-03-23T13:08:40;14.50;99.90
51007;DHT22;37034;47.886;-3.904;2024-03-23T13:11:07;14.50;99.90
51007;DHT22;37034;47.886;-3.904;2024-03-23T13:13:34;14.50;99.90
51007;DHT22;37034;47.886;-3.904;2024-03-23T13:16:00;14.50;99.90
51007;DHT22;37034;47.886;-3.904;2024-03-23T13:18:26;14.50;99.90
51007;DHT22;37034;47.886;-3.904;2024-03-23T13:20:52;14.50;99.90
51007;DHT22;37034;47.886;-3.904;2024-03-23T13:23:17;14.50;99.90
51007;DHT22;37034;47.886;-3.904;2024-03-23T13:25:52;14.50;99.90
51007;DHT22;37034;47.886;-3.904;2024-03-23T13:28:22;14.50;99.90
51007;DHT22;37034;47.886;-3.904;2024-03-23T13:30:55;14.40;99.90
51007;DHT22;37034;47.886;-3.904;2024-03-23T13:33:21;14.30;99.90
51007;DHT22;37034;47.886;-3.904;2024-03-23T13:35:54;14.10;99.90
51007;DHT22;37034;47.886;-3.904;2024-03-23T13:38:21;13.90;99.90
51007;DHT22;37034;47.886;-3.904;2024-03-23T13:40:58;13.90;99.90
51007;DHT22;37034;47.886;-3.904;2024-03-23T13:43:25;13.90;99.90
51007;DHT22;37034;47.886;-3.904;2024-03-23T13:45:55;14.00;99.90
51007;DHT22;37034;47.886;-3.904;2024-03-23T13:48:23;14.10;99.90
51007;DHT22;37034;47.886;-3.904;2024-03-23T13:51:01;14.20;99.90
51007;DHT22;37034;47.886;-3.904;2024-03-23T13:53:27;14.30;99.90
51007;DHT22;37034;47.886;-3.904;2024-03-23T13:55:53;14.40;99.90
51007;DHT22;37034;47.886;-3.904;2024-03-23T13:58:19;14.50;99.90
51007;DHT22;37034;47.886;-3.904;2024-03-23T14:00:45;14.60;99.90
51007;DHT22;37034;47.886;-3.904;2024-03-23T14:03:12;14.60;99.90
51007;DHT22;37034;47.886;-3.904;2024-03-23T14:05:38;14.50;99.90
51007;DHT22;37034;47.886;-3.904;2024-03-23T14:08:07;14.40;99.90
51007;DHT22;37034;47.886;-3.904;2024-03-23T14:10:33;14.40;99.90
51007;DHT22;37034;47.886;-3.904;2024-03-23T14:12:59;14.40;99.90
51007;DHT22;37034;47.886;-3.904;2024-03-23T14:15:29;14.50;99.90
51007;DHT22;37034;47.886;-3.904;2024-03-23T14:17:55;14.60;99.90
51007;DHT22;37034;47.886;-3.904;2024-03-23T14:20:21;14.60;99.90
51007;DHT22;37034;47.886;-3.904;2024-03-23T14:22:48;14.60;99.90
51007;DHT22;37034;47.886;-3.904;2024-03-23T14:25:14;14.90;99.90
51007;DHT22;37034;47.886;-3.904;2024-03-23T14:27:40;15.20;99.90
51007;DHT22;37034;47.886;-3.904;2024-03-23T14:30:06;14.90;99.90
51007;DHT22;37034;47.886;-3.904;2024-03-23T14:32:32;14.20;99.90
51007;DHT22;37034;47.886;-3.904;2024-03-23T14:35:03;13.80;99.90
51007;DHT22;37034;47.886;-3.904;2024-03-23T14:37:29;13.70;99.90
51007;DHT22;37034;47.886;-3.904;2024-03-23T14:39:58;13.70;99.90
51007;DHT22;37034;47.886;-3.904;2024-03-23T14:42:24;13.90;99.90
51007;DHT22;37034;47.886;-3.904;2024-03-23T14:44:50;13.90;99.90
51007;DHT22;37034;47.886;-3.904;2024-03-23T14:47:17;14.10;99.90
51007;DHT22;37034;47.886;-3.904;2024-03-23T14:49:43;14.30;99.90
51007;DHT22;37034;47.886;-3.904;2024-03-23T14:52:13;14.40;99.90
51007;DHT22;37034;47.886;-3.904;2024-03-23T14:54:39;14.30;99.90
51007;DHT22;37034;47.886;-3.904;2024-03-23T14:57:04;14.20;99.90
51007;DHT22;37034;47.886;-3.904;2024-03-23T14:59:30;14.10;99.90
51007;DHT22;37034;47.886;-3.904;2024-03-23T15:01:56;14.10;99.90
51007;DHT22;37034;47.886;-3.904;2024-03-23T15:04:21;14.30;99.90
51007;DHT22;37034;47.886;-3.904;2024-03-23T15:06:47;14.40;99.90
51007;DHT22;37034;47.886;-3.904;2024-03-23T15:09:15;14.50;99.90
51007;DHT22;37034;47.886;-3.904;2024-03-23T15:11:40;14.30;99.90
51007;DHT22;37034;47.886;-3.904;2024-03-23T15:14:09;14.30;99.90
51007;DHT22;37034;47.886;-3.904;2024-03-23T15:16:36;14.20;99.90
51007;DHT22;37034;47.886;-3.904;2024-03-23T15:19:02;14.20;99.90
51007;DHT22;37034;47.886;-3.904;2024-03-23T15:21:27;14.20;99.90
51007;DHT22;37034;47.886;-3.904;2024-03-23T15:23:53;14.30;99.90
51007;DHT22;37034;47.886;-3.904;2024-03-23T15:26:22;14.20;99.90
51007;DHT22;37034;47.886;-3.904;2024-03-23T15:28:50;14.20;99.90
51007;DHT22;37034;47.886;-3.904;2024-03-23T15:31:22;14.20;99.90
51007;DHT22;37034;47.886;-3.904;2024-03-23T15:33:48;14.30;99.90
51007;DHT22;37034;47.886;-3.904;2024-03-23T15:36:17;14.30;99.90
51007;DHT22;37034;47.886;-3.904;2024-03-23T15:38:43;14.50;99.90
51007;DHT22;37034;47.886;-3.904;2024-03-23T15:41:09;14.30;99.90
51007;DHT22;37034;47.886;-3.904;2024-03-23T15:43:35;14.40;99.90
51007;DHT22;37034;47.886;-3.904;2024-03-23T15:46:02;14.30;99.90
51007;DHT22;37034;47.886;-3.904;2024-03-23T15:48:29;14.30;99.90
51007;DHT22;37034;47.886;-3.904;2024-03-23T15:50:56;14.30;99.90
51007;DHT22;37034;47.886;-3.904;2024-03-23T15:53:23;14.30;99.90
51007;DHT22;37034;47.886;-3.904;2024-03-23T15:58:22;14.20;99.90
51007;DHT22;37034;47.886;-3.904;2024-03-23T16:01:14;14.10;99.90
51007;DHT22;37034;47.886;-3.904;2024-03-23T16:03:39;14.00;99.90
51007;DHT22;37034;47.886;-3.904;2024-03-23T16:06:06;14.00;99.90
51007;DHT22;37034;47.886;-3.904;2024-03-23T16:08:33;13.90;99.90
51007;DHT22;37034;47.886;-3.904;2024-03-23T16:11:03;14.00;99.90
51007;DHT22;37034;47.886;-3.904;2024-03-23T16:13:34;14.00;99.90